sensor_id;sensor_type;location;lat;lon;timestamp;P1;durP1;ratioP1;P2;durP2;ratioP2
15931;SDS011;8065;49.520;11.284;2022-11-11T00:00:11;6.23;;;5.20;;
15931;SDS011;8065;49.520;11.284;2022-11-11T00:02:38;8.10;;;5.57;;
15931;SDS011;8065;49.520;11.284;2022-11-11T00:05:04;8.70;;;5.60;;
15931;SDS011;8065;49.520;11.284;2022-11-11T00:07:31;14.60;;;6.67;;
15931;SDS011;8065;49.520;11.284;2022-11-11T00:09:59;12.77;;;5.97;;
15931;SDS011;8065;49.520;11.284;2022-11-11T00:12:25;7.23;;;5.43;;
15931;SDS011;8065;49.520;11.284;2022-11-11T00:14:52;10.90;;;6.63;;
15931;SDS011;8065;49.520;11.284;2022-11-11T00:17:18;10.27;;;6.17;;
15931;SDS011;8065;49.520;11.284;2022-11-11T00:20:02;11.13;;;6.87;;
15931;SDS011;8065;49.520;11.284;2022-11-11T00:22:46;11.90;;;6.63;;
15931;SDS011;8065;49.520;11.284;2022-11-11T00:25:31;9.80;;;6.40;;
15931;SDS011;8065;49.520;11.284;2022-11-11T00:27:58;8.80;;;5.83;;
15931;SDS011;8065;49.520;11.284;2022-11-11T00:30:24;9.37;;;6.70;;
15931;SDS011;8065;49.520;11.284;2022-11-11T00:32:51;11.20;;;6.37;;
15931;SDS011;8065;49.520;11.284;2022-11-11T00:35:17;13.23;;;6.73;;
15931;SDS011;8065;49.520;11.284;2022-11-11T00:38:05;10.57;;;6.87;;
15931;SDS011;8065;49.520;11.284;2022-11-11T00:40:34;11.53;;;6.80;;
15931;SDS011;8065;49.520;11.284;2022-11-11T00:43:01;12.23;;;6.53;;
15931;SDS011;8065;49.520;11.284;2022-11-11T00:45:28;13.53;;;6.40;;
15931;SDS011;8065;49.520;11.284;2022-11-11T00:47:54;8.03;;;5.70;;
15931;SDS011;8065;49.520;11.284;2022-11-11T00:50:38;8.07;;;5.80;;
15931;SDS011;8065;49.520;11.284;2022-11-11T00:53:24;6.27;;;5.37;;
15931;SDS011;8065;49.520;11.284;2022-11-11T00:55:53;8.53;;;5.73;;
15931;SDS011;8065;49.520;11.284;2022-11-11T00:58:21;9.13;;;5.57;;
15931;SDS011;8065;49.520;11.284;2022-11-11T01:00:47;7.70;;;4.83;;
15931;SDS011;8065;49.520;11.284;2022-11-11T01:03:17;7.60;;;5.60;;
15931;SDS011;8065;49.520;11.284;2022-11-11T01:05:44;5.33;;;4.83;;
15931;SDS011;8065;49.520;11.284;2022-11-11T01:08:10;6.67;;;5.47;;
15931;SDS011;8065;49.520;11.284;2022-11-11T01:10:37;8.37;;;5.07;;
15931;SDS011;8065;49.520;11.284;2022-11-11T01:13:06;6.87;;;4.80;;
15931;SDS011;8065;49.520;11.284;2022-11-11T01:15:38;4.87;;;4.33;;
15931;SDS011;8065;49.520;11.284;2022-11-11T01:18:06;5.80;;;4.70;;
15931;SDS011;8065;49.520;11.284;2022-11-11T01:20:33;4.97;;;4.10;;
15931;SDS011;8065;49.520;11.284;2022-11-11T01:23:01;6.83;;;4.03;;
15931;SDS011;8065;49.520;11.284;2022-11-11T01:25:28;5.13;;;3.90;;
15931;SDS011;8065;49.520;11.284;2022-11-11T01:27:54;4.67;;;4.20;;
15931;SDS011;8065;49.520;11.284;2022-11-11T01:30:22;7.73;;;4.60;;
15931;SDS011;8065;49.520;11.284;2022-11-11T01:32:48;6.27;;;4.30;;
15931;SDS011;8065;49.520;11.284;2022-11-11T01:35:15;7.37;;;4.60;;
15931;SDS011;8065;49.520;11.284;2022-11-11T01:37:42;6.60;;;4.17;;
15931;SDS011;8065;49.520;11.284;2022-11-11T01:40:08;8.47;;;4.60;;
15931;SDS011;8065;49.520;11.284;2022-11-11T01:42:46;8.50;;;4.67;;
15931;SDS011;8065;49.520;11.284;2022-11-11T01:48:15;7.13;;;4.73;;
15931;SDS011;8065;49.520;11.284;2022-11-11T01:51:03;6.90;;;4.47;;
15931;SDS011;8065;49.520;11.284;2022-11-11T01:53:36;7.53;;;5.07;;
15931;SDS011;8065;49.520;11.284;2022-11-11T01:56:02;6.33;;;5.10;;
15931;SDS011;8065;49.520;11.284;2022-11-11T01:58:29;5.53;;;4.50;;
15931;SDS011;8065;49.520;11.284;2022-11-11T02:00:57;6.37;;;4.80;;
15931;SDS011;8065;49.520;11.284;2022-11-11T02:03:25;8.33;;;4.63;;
15931;SDS011;8065;49.520;11.284;2022-11-11T02:05:56;6.87;;;4.60;;
15931;SDS011;8065;49.520;11.284;2022-11-11T02:08:23;5.60;;;4.50;;
15931;SDS011;8065;49.520;11.284;2022-11-11T02:10:59;5.23;;;4.50;;
15931;SDS011;8065;49.520;11.284;2022-11-11T02:13:29;6.03;;;4.30;;
15931;SDS011;8065;49.520;11.284;2022-11-11T02:16:16;6.47;;;4.20;;
15931;SDS011;8065;49.520;11.284;2022-11-11T02:18:42;6.53;;;4.30;;
15931;SDS011;8065;49.520;11.284;2022-11-11T02:21:10;5.60;;;4.23;;
15931;SDS011;8065;49.520;11.284;2022-11-11T02:23:43;5.33;;;4.40;;
15931;SDS011;8065;49.520;11.284;2022-11-11T02:26:15;4.67;;;4.23;;
15931;SDS011;8065;49.520;11.284;2022-11-11T02:28:43;6.63;;;4.70;;
15931;SDS011;8065;49.520;11.284;2022-11-11T02:31:10;6.13;;;4.67;;
15931;SDS011;8065;49.520;11.284;2022-11-11T02:33:37;12.13;;;4.77;;
15931;SDS011;8065;49.520;11.284;2022-11-11T02:36:04;5.73;;;4.30;;
15931;SDS011;8065;49.520;11.284;2022-11-11T02:38:31;7.00;;;4.47;;
15931;SDS011;8065;49.520;11.284;2022-11-11T02:40:57;6.10;;;4.57;;
15931;SDS011;8065;49.520;11.284;2022-11-11T02:43:43;5.93;;;4.90;;
15931;SDS011;8065;49.520;11.284;2022-11-11T02:46:10;8.13;;;4.57;;
15931;SDS011;8065;49.520;11.284;2022-11-11T02:48:36;6.43;;;4.10;;
15931;SDS011;8065;49.520;11.284;2022-11-11T02:51:03;4.77;;;4.17;;
15931;SDS011;8065;49.520;11.284;2022-11-11T02:53:30;5.67;;;3.83;;
15931;SDS011;8065;49.520;11.284;2022-11-11T02:55:57;6.73;;;4.20;;
15931;SDS011;8065;49.520;11.284;2022-11-11T02:58:23;4.97;;;4.30;;
15931;SDS011;8065;49.520;11.284;2022-11-11T03:00:51;5.07;;;4.20;;
15931;SDS011;8065;49.520;11.284;2022-11-11T03:03:18;5.13;;;4.17;;
15931;SDS011;8065;49.520;11.284;2022-11-11T03:05:44;6.30;;;4.13;;
15931;SDS011;8065;49.520;11.284;2022-11-11T03:08:10;5.63;;;3.77;;
15931;SDS011;8065;49.520;11.284;2022-11-11T03:10:37;4.17;;;3.57;;
15931;SDS011;8065;49.520;11.284;2022-11-11T03:13:03;6.13;;;4.13;;
15931;SDS011;8065;49.520;11.284;2022-11-11T03:15:30;5.37;;;3.97;;
15931;SDS011;8065;49.520;11.284;2022-11-11T03:17:57;4.20;;;3.80;;
15931;SDS011;8065;49.520;11.284;2022-11-11T03:20:23;4.23;;;3.83;;
15931;SDS011;8065;49.520;11.284;2022-11-11T03:23:08;4.53;;;3.90;;
15931;SDS011;8065;49.520;11.284;2022-11-11T03:25:36;6.83;;;3.70;;
15931;SDS011;8065;49.520;11.284;2022-11-11T03:28:04;4.53;;;3.63;;
15931;SDS011;8065;49.520;11.284;2022-11-11T03:30:31;3.60;;;3.30;;
15931;SDS011;8065;49.520;11.284;2022-11-11T03:32:59;4.20;;;3.60;;
15931;SDS011;8065;49.520;11.284;2022-11-11T03:35:26;5.43;;;3.70;;
15931;SDS011;8065;49.520;11.284;2022-11-11T03:37:53;5.23;;;3.93;;
15931;SDS011;8065;49.520;11.284;2022-11-11T03:40:37;3.80;;;3.40;;
15931;SDS011;8065;49.520;11.284;2022-11-11T03:43:04;4.23;;;3.67;;
15931;SDS011;8065;49.520;11.284;2022-11-11T03:45:31;4.60;;;3.70;;
15931;SDS011;8065;49.520;11.284;2022-11-11T03:47:57;6.47;;;3.77;;
15931;SDS011;8065;49.520;11.284;2022-11-11T03:50:25;4.17;;;3.23;;
15931;SDS011;8065;49.520;11.284;2022-11-11T03:52:52;5.07;;;3.73;;
15931;SDS011;8065;49.520;11.284;2022-11-11T03:57:56;4.33;;;3.40;;
15931;SDS011;8065;49.520;11.284;2022-11-11T04:00:24;6.83;;;3.37;;
15931;SDS011;8065;49.520;11.284;2022-11-11T04:02:59;4.83;;;3.40;;
15931;SDS011;8065;49.520;11.284;2022-11-11T04:05:46;6.03;;;3.50;;
15931;SDS011;8065;49.520;11.284;2022-11-11T04:08:41;5.37;;;3.70;;
15931;SDS011;8065;49.520;11.284;2022-11-11T04:11:26;3.83;;;3.40;;
15931;SDS011;8065;49.520;11.284;2022-11-11T04:13:54;5.87;;;3.63;;
15931;SDS011;8065;49.520;11.284;2022-11-11T04:16:42;5.40;;;3.27;;
15931;SDS011;8065;49.520;11.284;2022-11-11T04:19:08;5.50;;;3.90;;
15931;SDS011;8065;49.520;11.284;2022-11-11T04:21:50;4.97;;;3.93;;
15931;SDS011;8065;49.520;11.284;2022-11-11T04:24:17;5.13;;;3.83;;
15931;SDS011;8065;49.520;11.284;2022-11-11T04:27:03;5.50;;;3.60;;
15931;SDS011;8065;49.520;11.284;2022-11-11T04:29:30;3.53;;;3.10;;
15931;SDS011;8065;49.520;11.284;2022-11-11T04:31:56;3.53;;;3.23;;
15931;SDS011;8065;49.520;11.284;2022-11-11T04:34:42;6.37;;;3.53;;
15931;SDS011;8065;49.520;11.284;2022-11-11T04:37:11;5.30;;;3.30;;
15931;SDS011;8065;49.520;11.284;2022-11-11T04:39:38;3.63;;;3.30;;
15931;SDS011;8065;49.520;11.284;2022-11-11T04:42:22;3.90;;;3.47;;
15931;SDS011;8065;49.520;11.284;2022-11-11T04:44:49;5.30;;;3.47;;
15931;SDS011;8065;49.520;11.284;2022-11-11T04:47:33;7.60;;;3.67;;
15931;SDS011;8065;49.520;11.284;2022-11-11T04:50:00;5.07;;;3.33;;
15931;SDS011;8065;49.520;11.284;2022-11-11T04:52:28;5.30;;;3.60;;
15931;SDS011;8065;49.520;11.284;2022-11-11T04:54:54;5.00;;;4.00;;
15931;SDS011;8065;49.520;11.284;2022-11-11T04:57:40;5.37;;;3.77;;
15931;SDS011;8065;49.520;11.284;2022-11-11T05:00:08;4.73;;;3.80;;
15931;SDS011;8065;49.520;11.284;2022-11-11T05:02:35;5.70;;;3.50;;
15931;SDS011;8065;49.520;11.284;2022-11-11T05:05:19;6.87;;;3.50;;
15931;SDS011;8065;49.520;11.284;2022-11-11T05:07:47;4.47;;;3.43;;
15931;SDS011;8065;49.520;11.284;2022-11-11T05:10:31;4.80;;;4.00;;
15931;SDS011;8065;49.520;11.284;2022-11-11T05:12:58;6.53;;;3.80;;
15931;SDS011;8065;49.520;11.284;2022-11-11T05:15:38;4.73;;;3.77;;
15931;SDS011;8065;49.520;11.284;2022-11-11T05:18:22;5.07;;;3.93;;
15931;SDS011;8065;49.520;11.284;2022-11-11T05:21:07;5.50;;;3.70;;
15931;SDS011;8065;49.520;11.284;2022-11-11T05:23:47;7.70;;;4.73;;
15931;SDS011;8065;49.520;11.284;2022-11-11T05:26:31;6.43;;;3.90;;
15931;SDS011;8065;49.520;11.284;2022-11-11T05:28:57;4.90;;;3.50;;
15931;SDS011;8065;49.520;11.284;2022-11-11T05:31:24;4.30;;;3.70;;
15931;SDS011;8065;49.520;11.284;2022-11-11T05:33:50;3.93;;;3.27;;
15931;SDS011;8065;49.520;11.284;2022-11-11T05:36:17;3.70;;;3.40;;
15931;SDS011;8065;49.520;11.284;2022-11-11T05:38:43;8.30;;;3.70;;
15931;SDS011;8065;49.520;11.284;2022-11-11T05:41:11;5.47;;;3.17;;
15931;SDS011;8065;49.520;11.284;2022-11-11T05:43:37;5.63;;;3.60;;
15931;SDS011;8065;49.520;11.284;2022-11-11T05:46:04;5.37;;;3.17;;
15931;SDS011;8065;49.520;11.284;2022-11-11T05:48:30;5.20;;;3.30;;
15931;SDS011;8065;49.520;11.284;2022-11-11T05:50:57;4.83;;;3.80;;
15931;SDS011;8065;49.520;11.284;2022-11-11T05:53:23;5.40;;;3.60;;
15931;SDS011;8065;49.520;11.284;2022-11-11T05:55:50;6.03;;;3.43;;
15931;SDS011;8065;49.520;11.284;2022-11-11T05:58:18;4.60;;;3.63;;
15931;SDS011;8065;49.520;11.284;2022-11-11T06:00:44;3.53;;;3.23;;
15931;SDS011;8065;49.520;11.284;2022-11-11T06:03:11;5.90;;;3.30;;
15931;SDS011;8065;49.520;11.284;2022-11-11T06:05:38;5.07;;;3.10;;
15931;SDS011;8065;49.520;11.284;2022-11-11T06:08:04;5.17;;;3.40;;
15931;SDS011;8065;49.520;11.284;2022-11-11T06:10:31;3.77;;;3.13;;
15931;SDS011;8065;49.520;11.284;2022-11-11T06:12:57;3.93;;;3.50;;
15931;SDS011;8065;49.520;11.284;2022-11-11T06:15:30;5.40;;;3.40;;
15931;SDS011;8065;49.520;11.284;2022-11-11T06:17:58;3.77;;;3.27;;
15931;SDS011;8065;49.520;11.284;2022-11-11T06:20:24;4.33;;;3.33;;
15931;SDS011;8065;49.520;11.284;2022-11-11T06:22:51;4.13;;;3.33;;
15931;SDS011;8065;49.520;11.284;2022-11-11T06:25:24;3.67;;;3.10;;
15931;SDS011;8065;49.520;11.284;2022-11-11T06:28:09;3.07;;;2.77;;
15931;SDS011;8065;49.520;11.284;2022-11-11T06:30:37;4.73;;;3.10;;
15931;SDS011;8065;49.520;11.284;2022-11-11T06:33:04;5.07;;;3.50;;
15931;SDS011;8065;49.520;11.284;2022-11-11T06:35:31;3.63;;;3.00;;
15931;SDS011;8065;49.520;11.284;2022-11-11T06:37:58;3.80;;;3.30;;
15931;SDS011;8065;49.520;11.284;2022-11-11T06:40:24;3.50;;;3.10;;
15931;SDS011;8065;49.520;11.284;2022-11-11T06:42:52;3.70;;;2.87;;
15931;SDS011;8065;49.520;11.284;2022-11-11T06:45:19;4.33;;;3.10;;
15931;SDS011;8065;49.520;11.284;2022-11-11T06:47:46;4.57;;;3.50;;
15931;SDS011;8065;49.520;11.284;2022-11-11T06:50:13;3.57;;;3.03;;
15931;SDS011;8065;49.520;11.284;2022-11-11T06:52:40;3.47;;;3.17;;
15931;SDS011;8065;49.520;11.284;2022-11-11T06:55:07;3.13;;;2.80;;
15931;SDS011;8065;49.520;11.284;2022-11-11T06:57:33;4.27;;;3.23;;
15931;SDS011;8065;49.520;11.284;2022-11-11T07:00:00;4.57;;;3.13;;
15931;SDS011;8065;49.520;11.284;2022-11-11T07:02:27;4.60;;;3.20;;
15931;SDS011;8065;49.520;11.284;2022-11-11T07:04:55;5.20;;;3.40;;
15931;SDS011;8065;49.520;11.284;2022-11-11T07:07:22;4.47;;;4.07;;
15931;SDS011;8065;49.520;11.284;2022-11-11T07:09:48;7.00;;;4.37;;
15931;SDS011;8065;49.520;11.284;2022-11-11T07:12:15;7.27;;;4.67;;
15931;SDS011;8065;49.520;11.284;2022-11-11T07:14:41;4.73;;;4.27;;
15931;SDS011;8065;49.520;11.284;2022-11-11T07:17:08;5.47;;;4.73;;
15931;SDS011;8065;49.520;11.284;2022-11-11T07:19:34;6.07;;;4.20;;
15931;SDS011;8065;49.520;11.284;2022-11-11T07:22:02;5.17;;;4.27;;
15931;SDS011;8065;49.520;11.284;2022-11-11T07:24:29;7.07;;;5.90;;
15931;SDS011;8065;49.520;11.284;2022-11-11T07:26:55;5.83;;;3.90;;
15931;SDS011;8065;49.520;11.284;2022-11-11T07:29:23;6.23;;;3.33;;
15931;SDS011;8065;49.520;11.284;2022-11-11T07:31:49;5.97;;;3.50;;
15931;SDS011;8065;49.520;11.284;2022-11-11T07:34:16;8.13;;;3.70;;
15931;SDS011;8065;49.520;11.284;2022-11-11T07:36:42;4.83;;;3.93;;
15931;SDS011;8065;49.520;11.284;2022-11-11T07:39:10;5.47;;;3.50;;
15931;SDS011;8065;49.520;11.284;2022-11-11T07:41:36;4.33;;;3.27;;
15931;SDS011;8065;49.520;11.284;2022-11-11T07:44:03;6.07;;;3.60;;
15931;SDS011;8065;49.520;11.284;2022-11-11T07:46:29;4.10;;;3.40;;
15931;SDS011;8065;49.520;11.284;2022-11-11T07:48:56;5.80;;;3.70;;
15931;SDS011;8065;49.520;11.284;2022-11-11T07:51:22;4.20;;;3.50;;
15931;SDS011;8065;49.520;11.284;2022-11-11T07:53:49;6.07;;;3.63;;
15931;SDS011;8065;49.520;11.284;2022-11-11T07:56:16;6.10;;;4.20;;
15931;SDS011;8065;49.520;11.284;2022-11-11T07:58:43;6.30;;;4.30;;
15931;SDS011;8065;49.520;11.284;2022-11-11T08:01:09;5.57;;;3.97;;
15931;SDS011;8065;49.520;11.284;2022-11-11T08:03:36;6.70;;;4.20;;
15931;SDS011;8065;49.520;11.284;2022-11-11T08:06:13;6.87;;;4.23;;
15931;SDS011;8065;49.520;11.284;2022-11-11T08:08:40;8.43;;;4.60;;
15931;SDS011;8065;49.520;11.284;2022-11-11T08:11:06;6.37;;;3.60;;
15931;SDS011;8065;49.520;11.284;2022-11-11T08:13:34;3.97;;;3.57;;
15931;SDS011;8065;49.520;11.284;2022-11-11T08:16:05;9.83;;;3.53;;
15931;SDS011;8065;49.520;11.284;2022-11-11T08:18:32;3.73;;;3.37;;
15931;SDS011;8065;49.520;11.284;2022-11-11T08:20:59;4.30;;;3.33;;
15931;SDS011;8065;49.520;11.284;2022-11-11T08:23:26;5.63;;;3.33;;
15931;SDS011;8065;49.520;11.284;2022-11-11T08:25:57;4.97;;;3.40;;
15931;SDS011;8065;49.520;11.284;2022-11-11T08:28:24;5.83;;;3.67;;
15931;SDS011;8065;49.520;11.284;2022-11-11T08:30:52;7.07;;;3.50;;
15931;SDS011;8065;49.520;11.284;2022-11-11T08:33:18;5.03;;;2.90;;
15931;SDS011;8065;49.520;11.284;2022-11-11T08:35:45;3.53;;;3.03;;
15931;SDS011;8065;49.520;11.284;2022-11-11T08:38:12;5.07;;;3.57;;
15931;SDS011;8065;49.520;11.284;2022-11-11T08:40:38;6.03;;;3.43;;
15931;SDS011;8065;49.520;11.284;2022-11-11T08:43:05;5.80;;;3.73;;
15931;SDS011;8065;49.520;11.284;2022-11-11T08:45:32;6.90;;;3.47;;
15931;SDS011;8065;49.520;11.284;2022-11-11T08:48:00;7.03;;;3.70;;
15931;SDS011;8065;49.520;11.284;2022-11-11T08:50:26;5.80;;;3.40;;
15931;SDS011;8065;49.520;11.284;2022-11-11T08:52:53;3.57;;;3.27;;
15931;SDS011;8065;49.520;11.284;2022-11-11T08:55:19;5.07;;;3.87;;
15931;SDS011;8065;49.520;11.284;2022-11-11T08:57:46;6.13;;;3.67;;
15931;SDS011;8065;49.520;11.284;2022-11-11T09:00:13;5.27;;;3.50;;
15931;SDS011;8065;49.520;11.284;2022-11-11T09:02:40;7.90;;;3.90;;
15931;SDS011;8065;49.520;11.284;2022-11-11T09:05:08;4.27;;;3.33;;
15931;SDS011;8065;49.520;11.284;2022-11-11T09:07:34;5.37;;;3.53;;
15931;SDS011;8065;49.520;11.284;2022-11-11T09:10:01;5.40;;;3.80;;
15931;SDS011;8065;49.520;11.284;2022-11-11T09:12:27;8.17;;;4.13;;
15931;SDS011;8065;49.520;11.284;2022-11-11T09:14:54;7.00;;;4.03;;
15931;SDS011;8065;49.520;11.284;2022-11-11T09:17:20;15.10;;;13.70;;
15931;SDS011;8065;49.520;11.284;2022-11-11T09:19:46;8.77;;;7.93;;
15931;SDS011;8065;49.520;11.284;2022-11-11T09:22:14;6.90;;;4.20;;
15931;SDS011;8065;49.520;11.284;2022-11-11T09:24:41;5.17;;;3.80;;
15931;SDS011;8065;49.520;11.284;2022-11-11T09:27:07;6.80;;;3.80;;
15931;SDS011;8065;49.520;11.284;2022-11-11T09:29:34;7.40;;;4.20;;
15931;SDS011;8065;49.520;11.284;2022-11-11T09:32:01;9.37;;;4.00;;
15931;SDS011;8065;49.520;11.284;2022-11-11T09:34:28;5.40;;;4.00;;
15931;SDS011;8065;49.520;11.284;2022-11-11T09:36:54;6.63;;;4.03;;
15931;SDS011;8065;49.520;11.284;2022-11-11T09:39:22;5.40;;;3.63;;
15931;SDS011;8065;49.520;11.284;2022-11-11T09:41:52;8.53;;;4.20;;
15931;SDS011;8065;49.520;11.284;2022-11-11T09:44:32;6.53;;;4.37;;
15931;SDS011;8065;49.520;11.284;2022-11-11T09:47:12;5.57;;;4.33;;
15931;SDS011;8065;49.520;11.284;2022-11-11T09:49:50;10.10;;;4.17;;
15931;SDS011;8065;49.520;11.284;2022-11-11T09:52:26;5.73;;;4.50;;
15931;SDS011;8065;49.520;11.284;2022-11-11T09:55:01;7.77;;;4.50;;
15931;SDS011;8065;49.520;11.284;2022-11-11T09:57:33;15.70;;;6.30;;
15931;SDS011;8065;49.520;11.284;2022-11-11T10:00:02;12.30;;;5.83;;
15931;SDS011;8065;49.520;11.284;2022-11-11T10:02:33;20.73;;;6.10;;
15931;SDS011;8065;49.520;11.284;2022-11-11T10:05:08;6.63;;;4.50;;
15931;SDS011;8065;49.520;11.284;2022-11-11T10:07:39;4.37;;;3.90;;
15931;SDS011;8065;49.520;11.284;2022-11-11T10:10:16;6.73;;;4.33;;
15931;SDS011;8065;49.520;11.284;2022-11-11T10:12:48;7.53;;;4.77;;
15931;SDS011;8065;49.520;11.284;2022-11-11T10:15:19;9.00;;;4.70;;
15931;SDS011;8065;49.520;11.284;2022-11-11T10:17:57;8.10;;;5.17;;
15931;SDS011;8065;49.520;11.284;2022-11-11T10:20:34;7.30;;;4.13;;
15931;SDS011;8065;49.520;11.284;2022-11-11T10:23:07;5.17;;;4.03;;
15931;SDS011;8065;49.520;11.284;2022-11-11T10:25:41;5.93;;;4.23;;
15931;SDS011;8065;49.520;11.284;2022-11-11T10:28:18;5.70;;;4.50;;
15931;SDS011;8065;49.520;11.284;2022-11-11T10:30:46;5.20;;;4.13;;
15931;SDS011;8065;49.520;11.284;2022-11-11T10:33:15;4.13;;;3.70;;
15931;SDS011;8065;49.520;11.284;2022-11-11T10:35:47;5.67;;;4.67;;
15931;SDS011;8065;49.520;11.284;2022-11-11T10:38:21;6.17;;;4.63;;
15931;SDS011;8065;49.520;11.284;2022-11-11T10:40:58;6.10;;;4.10;;
15931;SDS011;8065;49.520;11.284;2022-11-11T10:43:35;7.43;;;4.73;;
15931;SDS011;8065;49.520;11.284;2022-11-11T10:46:02;6.97;;;4.20;;
15931;SDS011;8065;49.520;11.284;2022-11-11T10:48:36;4.80;;;4.30;;
15931;SDS011;8065;49.520;11.284;2022-11-11T10:51:09;9.00;;;4.07;;
15931;SDS011;8065;49.520;11.284;2022-11-11T10:53:38;4.73;;;3.87;;
15931;SDS011;8065;49.520;11.284;2022-11-11T10:56:14;4.73;;;4.23;;
15931;SDS011;8065;49.520;11.284;2022-11-11T10:58:47;4.67;;;3.97;;
15931;SDS011;8065;49.520;11.284;2022-11-11T11:01:19;5.67;;;4.00;;
15931;SDS011;8065;49.520;11.284;2022-11-11T11:03:54;6.93;;;4.50;;
15931;SDS011;8065;49.520;11.284;2022-11-11T11:06:25;7.67;;;4.10;;
15931;SDS011;8065;49.520;11.284;2022-11-11T11:08:54;4.43;;;4.03;;
15931;SDS011;8065;49.520;11.284;2022-11-11T11:11:28;6.10;;;4.07;;
15931;SDS011;8065;49.520;11.284;2022-11-11T11:13:58;5.63;;;4.20;;
15931;SDS011;8065;49.520;11.284;2022-11-11T11:16:27;6.50;;;4.27;;
15931;SDS011;8065;49.520;11.284;2022-11-11T11:19:14;5.33;;;4.30;;
15931;SDS011;8065;49.520;11.284;2022-11-11T11:21:46;5.03;;;4.00;;
15931;SDS011;8065;49.520;11.284;2022-11-11T11:24:21;4.80;;;3.80;;
15931;SDS011;8065;49.520;11.284;2022-11-11T11:26:51;5.20;;;4.00;;
15931;SDS011;8065;49.520;11.284;2022-11-11T11:29:25;4.43;;;3.53;;
15931;SDS011;8065;49.520;11.284;2022-11-11T11:31:54;5.30;;;3.77;;
15931;SDS011;8065;49.520;11.284;2022-11-11T11:34:22;4.30;;;3.90;;
15931;SDS011;8065;49.520;11.284;2022-11-11T11:37:08;8.60;;;3.90;;
15931;SDS011;8065;49.520;11.284;2022-11-11T11:39:35;5.70;;;3.17;;
15931;SDS011;8065;49.520;11.284;2022-11-11T11:42:04;8.07;;;3.83;;
15931;SDS011;8065;49.520;11.284;2022-11-11T11:44:32;6.87;;;3.20;;
15931;SDS011;8065;49.520;11.284;2022-11-11T11:47:02;5.37;;;3.90;;
15931;SDS011;8065;49.520;11.284;2022-11-11T11:49:43;4.63;;;3.47;;
15931;SDS011;8065;49.520;11.284;2022-11-11T11:52:26;5.53;;;3.77;;
15931;SDS011;8065;49.520;11.284;2022-11-11T11:55:00;5.03;;;3.43;;
15931;SDS011;8065;49.520;11.284;2022-11-11T11:57:37;5.40;;;2.90;;
15931;SDS011;8065;49.520;11.284;2022-11-11T12:00:12;5.10;;;3.43;;
15931;SDS011;8065;49.520;11.284;2022-11-11T12:05:38;4.37;;;2.57;;
15931;SDS011;8065;49.520;11.284;2022-11-11T12:10:59;4.70;;;2.70;;
15931;SDS011;8065;49.520;11.284;2022-11-11T12:13:36;3.77;;;2.47;;
15931;SDS011;8065;49.520;11.284;2022-11-11T12:16:15;2.60;;;2.40;;
15931;SDS011;8065;49.520;11.284;2022-11-11T12:18:54;2.57;;;2.37;;
15931;SDS011;8065;49.520;11.284;2022-11-11T12:21:33;6.37;;;2.70;;
15931;SDS011;8065;49.520;11.284;2022-11-11T12:24:07;5.63;;;2.53;;
15931;SDS011;8065;49.520;11.284;2022-11-11T12:26:48;4.20;;;2.77;;
15931;SDS011;8065;49.520;11.284;2022-11-11T12:29:30;5.73;;;2.47;;
15931;SDS011;8065;49.520;11.284;2022-11-11T12:32:13;6.83;;;3.00;;
15931;SDS011;8065;49.520;11.284;2022-11-11T12:34:58;3.80;;;2.80;;
15931;SDS011;8065;49.520;11.284;2022-11-11T12:37:37;4.87;;;2.87;;
15931;SDS011;8065;49.520;11.284;2022-11-11T12:40:19;4.43;;;2.90;;
15931;SDS011;8065;49.520;11.284;2022-11-11T12:42:55;3.60;;;2.60;;
15931;SDS011;8065;49.520;11.284;2022-11-11T12:45:35;4.17;;;3.07;;
15931;SDS011;8065;49.520;11.284;2022-11-11T12:48:23;4.77;;;3.30;;
15931;SDS011;8065;49.520;11.284;2022-11-11T12:51:01;5.83;;;3.13;;
15931;SDS011;8065;49.520;11.284;2022-11-11T12:53:39;3.33;;;2.47;;
15931;SDS011;8065;49.520;11.284;2022-11-11T12:56:15;5.10;;;2.40;;
15931;SDS011;8065;49.520;11.284;2022-11-11T12:58:50;2.53;;;2.13;;
15931;SDS011;8065;49.520;11.284;2022-11-11T13:01:26;7.80;;;1.90;;
15931;SDS011;8065;49.520;11.284;2022-11-11T13:04:08;3.10;;;1.80;;
15931;SDS011;8065;49.520;11.284;2022-11-11T13:06:55;3.17;;;2.10;;
15931;SDS011;8065;49.520;11.284;2022-11-11T13:09:45;5.53;;;2.13;;
15931;SDS011;8065;49.520;11.284;2022-11-11T13:12:24;2.97;;;1.83;;
15931;SDS011;8065;49.520;11.284;2022-11-11T13:14:58;1.60;;;1.50;;
15931;SDS011;8065;49.520;11.284;2022-11-11T13:17:30;3.83;;;1.90;;
15931;SDS011;8065;49.520;11.284;2022-11-11T13:19:58;3.23;;;2.60;;
15931;SDS011;8065;49.520;11.284;2022-11-11T13:22:29;3.97;;;1.80;;
15931;SDS011;8065;49.520;11.284;2022-11-11T13:24:58;2.50;;;1.70;;
15931;SDS011;8065;49.520;11.284;2022-11-11T13:27:32;3.53;;;1.57;;
15931;SDS011;8065;49.520;11.284;2022-11-11T13:30:05;2.80;;;2.00;;
15931;SDS011;8065;49.520;11.284;2022-11-11T13:32:49;3.10;;;2.40;;
15931;SDS011;8065;49.520;11.284;2022-11-11T13:35:23;4.43;;;2.43;;
15931;SDS011;8065;49.520;11.284;2022-11-11T13:37:54;4.40;;;2.90;;
15931;SDS011;8065;49.520;11.284;2022-11-11T13:40:29;4.37;;;2.70;;
15931;SDS011;8065;49.520;11.284;2022-11-11T13:43:00;6.07;;;3.90;;
15931;SDS011;8065;49.520;11.284;2022-11-11T13:45:29;7.23;;;3.90;;
15931;SDS011;8065;49.520;11.284;2022-11-11T13:48:01;5.80;;;3.00;;
15931;SDS011;8065;49.520;11.284;2022-11-11T13:50:29;4.97;;;3.17;;
15931;SDS011;8065;49.520;11.284;2022-11-11T13:52:58;6.17;;;3.07;;
15931;SDS011;8065;49.520;11.284;2022-11-11T13:55:28;3.97;;;3.10;;
15931;SDS011;8065;49.520;11.284;2022-11-11T13:57:58;5.53;;;2.80;;
15931;SDS011;8065;49.520;11.284;2022-11-11T14:00:27;9.40;;;5.10;;
15931;SDS011;8065;49.520;11.284;2022-11-11T14:08:54;5.97;;;4.43;;
15931;SDS011;8065;49.520;11.284;2022-11-11T14:11:28;9.03;;;7.03;;
15931;SDS011;8065;49.520;11.284;2022-11-11T14:13:57;6.93;;;4.67;;
15931;SDS011;8065;49.520;11.284;2022-11-11T14:19:30;4.23;;;2.07;;
15931;SDS011;8065;49.520;11.284;2022-11-11T14:21:58;2.60;;;2.03;;
15931;SDS011;8065;49.520;11.284;2022-11-11T14:24:28;2.77;;;1.60;;
15931;SDS011;8065;49.520;11.284;2022-11-11T14:27:00;3.00;;;1.70;;
15931;SDS011;8065;49.520;11.284;2022-11-11T14:29:29;3.50;;;1.80;;
15931;SDS011;8065;49.520;11.284;2022-11-11T14:32:04;2.27;;;1.70;;
15931;SDS011;8065;49.520;11.284;2022-11-11T14:34:48;4.13;;;2.07;;
15931;SDS011;8065;49.520;11.284;2022-11-11T14:37:28;4.57;;;1.90;;
15931;SDS011;8065;49.520;11.284;2022-11-11T14:40:07;2.83;;;2.20;;
15931;SDS011;8065;49.520;11.284;2022-11-11T14:42:45;3.27;;;2.20;;
15931;SDS011;8065;49.520;11.284;2022-11-11T14:51:37;3.30;;;2.53;;
15931;SDS011;8065;49.520;11.284;2022-11-11T14:54:14;4.97;;;2.60;;
15931;SDS011;8065;49.520;11.284;2022-11-11T14:56:50;4.30;;;2.67;;
15931;SDS011;8065;49.520;11.284;2022-11-11T14:59:20;7.77;;;3.23;;
15931;SDS011;8065;49.520;11.284;2022-11-11T15:01:51;3.57;;;3.27;;
15931;SDS011;8065;49.520;11.284;2022-11-11T15:04:19;3.87;;;3.20;;
15931;SDS011;8065;49.520;11.284;2022-11-11T15:06:47;4.30;;;3.50;;
15931;SDS011;8065;49.520;11.284;2022-11-11T15:09:29;6.57;;;4.20;;
15931;SDS011;8065;49.520;11.284;2022-11-11T15:12:11;4.77;;;3.90;;
15931;SDS011;8065;49.520;11.284;2022-11-11T15:14:46;6.63;;;4.10;;
15931;SDS011;8065;49.520;11.284;2022-11-11T15:17:21;10.00;;;4.20;;
15931;SDS011;8065;49.520;11.284;2022-11-11T15:19:55;6.50;;;5.13;;
15931;SDS011;8065;49.520;11.284;2022-11-11T15:22:37;16.67;;;8.10;;
15931;SDS011;8065;49.520;11.284;2022-11-11T15:25:19;9.10;;;5.80;;
15931;SDS011;8065;49.520;11.284;2022-11-11T15:27:57;7.83;;;5.13;;
15931;SDS011;8065;49.520;11.284;2022-11-11T15:30:36;8.20;;;5.17;;
15931;SDS011;8065;49.520;11.284;2022-11-11T15:33:16;7.77;;;6.10;;
15931;SDS011;8065;49.520;11.284;2022-11-11T15:35:52;8.67;;;5.23;;
15931;SDS011;8065;49.520;11.284;2022-11-11T15:38:24;7.20;;;6.07;;